Flight Track Log - Related Links

Times and Time Zones

All times are in EDT time to prevent confusion due to time zone crossing. See the N498QS flight status page for this flight to view local times or setup timezone preferences in your user account.

Time Position Orientation Groundspeed Altitude Reporting Facility
EDT Latitude Longitude Course Direction KTS MPH feet Rate Location/Type
Sun 12:04:39 PM 34.4283 -119.8322 105° East 151 174 800  Level Los Angeles Center
Sun 12:05:03 PM 34.4233 -119.8103 105° East 166 191 1,900 2,195 Climbing Los Angeles Center
Sun 12:05:20 PM 34.4158 -119.8019 137° Southeast 169 194 2,300 2,262 Climbing Los Angeles Center
Sun 12:06:04 PM 34.3831 -119.7739 145° Southeast 198 228 4,200 2,419 Climbing Los Angeles Center
Sun 12:06:22 PM 34.3728 -119.7636 140° Southeast 186 214 4,800 2,850 Climbing Los Angeles Center
Sun 12:07:24 PM 34.3072 -119.7256 154° Southeast 235 270 8,000 2,780 Climbing Los Angeles Center
Sun 12:08:25 PM 34.2450 -119.6636 141° Southeast 280 322 10,500 1,415 Climbing Los Angeles Center
Sun 12:09:27 PM 34.1853 -119.5758 129° Southeast 331 381 10,900 194 Climbing Los Angeles Center
Sun 12:10:29 PM 34.1097 -119.4631 129° Southeast 357 411 10,900  Level Los Angeles Center
Sun 12:11:31 PM 34.0489 -119.3711 129° Southeast 352 405 10,900  Level Los Angeles Center
Sun 12:12:32 PM 33.9828 -119.2806 131° Southeast 360 414 10,900  Level Los Angeles Center
Sun 12:13:34 PM 33.9208 -119.1908 130° Southeast 351 404 10,900  Level Los Angeles Center
Sun 12:14:36 PM 33.8578 -119.1022 131° Southeast 350 403 10,900 48 Level Los Angeles Center
Sun 12:15:38 PM 33.7950 -119.0133 130° Southeast 351 404 11,000 48 Climbing Los Angeles Center
Sun 12:16:40 PM 33.7200 -118.9064 130° Southeast 352 405 11,000  Level Los Angeles Center
Sun 12:17:42 PM 33.6575 -118.8183 130° Southeast 349 402 11,000  Level Los Angeles Center
Sun 12:18:44 PM 33.6006 -118.7392 131° Southeast 321 369 11,000 -48 Level Los Angeles Center
Sun 12:19:46 PM 33.5456 -118.6617 130° Southeast 310 357 10,900 -726 Descending Los Angeles Center
Sun 12:20:48 PM 33.5269 -118.5664 103° East 302 348 9,500 -1,512 Descending Los Angeles Center
Sun 12:21:49 PM 33.5139 -118.4564 98° East 289 333 7,800 -1,659 Descending Los Angeles Center
Sun 12:22:51 PM 33.5386 -118.3825 68° East 257 296 6,100 -1,548 Descending Los Angeles Center
Sun 12:23:53 PM 33.5633 -118.3106 68° East 243 280 4,600 -1,016 Descending Los Angeles Center
Sun 12:24:55 PM 33.5833 -118.2450 70° East 227 261 4,000 -290 Descending Los Angeles Center
Sun 12:25:57 PM 33.6031 -118.1889 67° East 203 234 4,000 -484 Level Los Angeles Center
Sun 12:26:59 PM 33.6075 -118.1292 85° East 165 190 3,000 -1,113 Descending Los Angeles Center
Sun 12:28:01 PM 33.6017 -118.0767 98° East 161 185 1,700 -677 Descending Los Angeles Center
Sun 12:29:03 PM 33.6167 -118.0311 68° East 166 191 1,600 -51 Descending Los Angeles Center
Sun 12:29:58 PM 33.6500 -118.0000 38° Northeast 171 197 1,600  Level Southern California TRACON
Sun 12:30:52 PM 33.7000 -118.0167 345° North 173 199 1,600  Level Southern California TRACON
Sun 12:31:53 PM 33.7333 -118.0500 320° Northwest 174 200 1,600 -99 Level Southern California TRACON
Sun 12:32:53 PM 33.7667 -118.0833 320° Northwest 179 206 1,400 -143 Descending Southern California TRACON
Sun 12:33:59 PM 33.7833 -118.1500 287° West 171 197 1,300 -50 Descending Southern California TRACON
Sun 12:34:53 PM 33.8000 -118.1833 301° West 161 185 1,300  Level Southern California TRACON
Sun 12:35:14 PM 33.8103 -118.1969 312° West 167 192 1,300 -145 Level Los Angeles Center
Sun 12:36:16 PM 33.8444 -118.1972 360° North 161 185 1,100 -581 Descending Los Angeles Center
Sun 12:37:18 PM 33.8261 -118.1608 121° Southeast 145 167 100 -968 Descending Los Angeles Center

Login

Don't have an account? Register now (free) for customized features, flight alerts, and more!